createdAt,value
2019-01-25T00:00:42.342Z,41.50
2019-01-25T00:03:17.889Z,43.97
2019-01-25T00:05:42.461Z,41.37
2019-01-25T00:08:06.941Z,43.27
2019-01-25T00:10:31.383Z,44.53
2019-01-25T00:12:55.804Z,43.77
2019-01-25T00:15:20.283Z,40.57
2019-01-25T00:17:44.791Z,40.07
2019-01-25T00:20:21.009Z,37.27
2019-01-25T00:22:45.517Z,38.07
2019-01-25T00:28:07.056Z,38.53
2019-01-25T00:30:31.479Z,42.30
2019-01-25T00:32:55.883Z,41.63
2019-01-25T00:35:20.327Z,42.80
2019-01-25T00:37:44.726Z,42.67
2019-01-25T00:43:15.090Z,43.53
2019-01-25T00:48:36.685Z,45.63
2019-01-25T00:51:01.106Z,43.07
2019-01-25T00:53:25.517Z,41.67
2019-01-25T00:55:50.102Z,43.83
2019-01-25T00:58:14.524Z,44.53
2019-01-25T01:00:39.094Z,44.60
2019-01-25T01:03:17.282Z,41.63
2019-01-25T01:05:52.924Z,37.27
2019-01-25T01:08:17.340Z,40.43
2019-01-25T01:10:41.781Z,36.37
2019-01-25T01:13:06.261Z,37.93
2019-01-25T01:15:30.762Z,44.77
2019-01-25T01:17:55.173Z,41.30
2019-01-25T01:20:40.438Z,39.63
2019-01-25T01:23:04.931Z,42.07
2019-01-25T01:25:29.322Z,41.50
2019-01-25T01:27:53.742Z,36.70
2019-01-25T01:30:37.498Z,42.13
2019-01-25T01:33:01.922Z,39.17
2019-01-25T01:35:26.317Z,43.07
2019-01-25T01:37:51.290Z,41.47
2019-01-25T01:40:35.056Z,41.57
2019-01-25T01:45:54.036Z,39.90
2019-01-25T01:48:18.458Z,39.90
2019-01-25T01:50:42.886Z,39.63
2019-01-25T01:53:07.296Z,39.23
2019-01-25T01:55:31.723Z,42.60
2019-01-25T01:58:15.490Z,45.37
2019-01-25T02:00:39.917Z,40.23
2019-01-25T02:03:04.379Z,40.27
2019-01-25T02:05:28.844Z,40.43
2019-01-25T02:08:04.272Z,42.23
2019-01-25T02:10:29.874Z,40.17
2019-01-25T02:13:05.250Z,37.20
2019-01-25T02:15:29.643Z,43.83
2019-01-25T02:20:51.418Z,38.43
2019-01-25T02:23:16.660Z,40.00
2019-01-25T02:25:53.004Z,40.53
2019-01-25T02:28:17.413Z,42.43
2019-01-25T02:30:41.861Z,42.20
2019-01-25T02:33:06.277Z,40.47
2019-01-25T02:35:30.659Z,40.63
2019-01-25T02:37:55.165Z,45.13
2019-01-25T02:43:16.749Z,41.07
2019-01-25T02:45:41.149Z,40.60
2019-01-25T02:48:05.703Z,40.60
2019-01-25T02:50:30.129Z,47.57
2019-01-25T02:52:54.566Z,39.73
2019-01-25T02:58:15.847Z,42.83
2019-01-25T03:00:40.248Z,42.43
2019-01-25T03:03:04.898Z,43.07
2019-01-25T03:05:29.294Z,41.67
2019-01-25T03:10:50.852Z,40.47
2019-01-25T03:13:15.271Z,42.03
2019-01-25T03:15:39.697Z,45.27
2019-01-25T03:18:15.721Z,41.07
2019-01-25T03:20:40.115Z,42.03
2019-01-25T03:23:04.591Z,42.90
2019-01-25T03:25:29.017Z,44.03
2019-01-25T03:27:53.494Z,45.23
2019-01-25T03:35:50.643Z,44.87
2019-01-25T03:38:15.065Z,46.77
2019-01-25T03:40:39.476Z,47.10
2019-01-25T03:43:03.900Z,44.47
2019-01-25T03:45:49.085Z,45.87
2019-01-25T03:48:13.584Z,43.73
2019-01-25T03:50:37.984Z,45.83
2019-01-25T03:53:02.408Z,44.67
2019-01-25T03:55:26.964Z,43.67
2019-01-25T03:57:51.399Z,46.77
2019-01-25T04:00:35.148Z,47.47
2019-01-25T04:02:59.765Z,48.33
2019-01-25T04:05:24.187Z,47.00
2019-01-25T04:07:59.998Z,43.00
2019-01-25T04:13:21.899Z,43.50
2019-01-25T04:15:46.306Z,49.63
2019-01-25T04:18:10.773Z,44.03
2019-01-25T04:20:35.199Z,48.87
2019-01-25T04:22:59.671Z,44.53
2019-01-25T04:28:20.653Z,48.87
2019-01-25T04:30:45.067Z,50.50
2019-01-25T04:33:09.470Z,45.37
2019-01-25T04:35:35.453Z,49.43
2019-01-25T04:41:11.598Z,48.50
2019-01-25T04:43:37.844Z,50.60
2019-01-25T04:46:02.300Z,51.63
2019-01-25T04:48:26.700Z,51.27
2019-01-25T04:50:51.106Z,51.83
2019-01-25T04:53:15.524Z,47.97
2019-01-25T04:55:39.921Z,51.17
2019-01-25T04:58:25.161Z,54.23
2019-01-25T05:00:49.676Z,52.97
2019-01-25T05:03:14.343Z,50.70
2019-01-25T05:05:38.812Z,50.93
2019-01-25T05:10:59.656Z,50.87
2019-01-25T05:13:24.080Z,52.20
2019-01-25T05:15:48.478Z,51.23
2019-01-25T05:18:12.941Z,54.20
2019-01-25T05:20:37.432Z,54.33
2019-01-25T05:25:58.425Z,58.43
2019-01-25T05:28:22.830Z,55.70
2019-01-25T05:31:06.605Z,53.83
2019-01-25T05:33:31.016Z,54.00
2019-01-25T05:35:55.411Z,54.10
2019-01-25T05:38:19.835Z,54.63
2019-01-25T05:40:49.663Z,58.20
2019-01-25T05:43:14.125Z,53.67
2019-01-25T05:48:35.248Z,57.23
2019-01-25T05:51:18.984Z,53.30
2019-01-25T05:59:36.553Z,53.07
2019-01-25T06:02:00.984Z,52.70
2019-01-25T06:04:50.225Z,57.60
2019-01-25T06:07:14.650Z,54.33
2019-01-25T06:09:39.057Z,56.93
2019-01-25T06:12:03.502Z,58.83
2019-01-25T06:14:27.888Z,58.87
2019-01-25T06:16:52.317Z,55.97
2019-01-25T06:19:16.741Z,53.57
2019-01-25T06:21:41.144Z,56.80
2019-01-25T06:24:05.558Z,60.70
2019-01-25T06:26:30.022Z,58.00
2019-01-25T06:28:54.463Z,59.77
2019-01-25T06:34:16.123Z,58.50
2019-01-25T06:36:40.527Z,61.97
2019-01-25T06:42:02.085Z,56.50
2019-01-25T06:44:26.498Z,58.30
2019-01-25T06:46:50.948Z,61.67
2019-01-25T06:49:15.368Z,58.70
2019-01-25T06:51:39.778Z,61.00
2019-01-25T06:54:15.991Z,61.73
2019-01-25T06:56:40.400Z,65.43
2019-01-25T06:59:23.997Z,60.53
2019-01-25T07:02:07.519Z,63.47
2019-01-25T07:04:31.934Z,62.57
2019-01-25T07:06:56.355Z,61.60
2019-01-25T07:09:26.088Z,61.83
2019-01-25T07:11:51.758Z,62.97
2019-01-25T07:14:22.391Z,59.00
2019-01-25T07:16:46.791Z,62.70
2019-01-25T07:19:11.246Z,61.07
2019-01-25T07:21:35.654Z,59.53
2019-01-25T07:24:00.071Z,65.83
2019-01-25T07:26:24.508Z,63.07
2019-01-25T07:28:48.903Z,58.90
2019-01-25T07:31:13.387Z,59.30
2019-01-25T07:33:37.820Z,63.93
2019-01-25T07:36:02.308Z,56.80
2019-01-25T07:38:26.805Z,66.33
2019-01-25T07:40:51.216Z,61.77
2019-01-25T07:43:15.613Z,63.10
2019-01-25T07:45:40.017Z,61.97
2019-01-25T07:48:04.435Z,62.87
2019-01-25T07:50:28.849Z,58.07
2019-01-25T07:52:53.246Z,56.50
2019-01-25T07:55:17.709Z,61.90
2019-01-25T08:00:18.025Z,62.43
2019-01-25T08:02:42.479Z,65.67
2019-01-25T08:08:03.993Z,61.20
2019-01-25T08:10:28.402Z,61.60
2019-01-25T08:12:52.837Z,63.53
2019-01-25T08:18:14.713Z,62.13
2019-01-25T08:20:39.079Z,64.30
2019-01-25T08:23:15.441Z,56.67
2019-01-25T08:25:39.878Z,54.13
2019-01-25T08:28:09.533Z,59.13
2019-01-25T08:30:33.969Z,53.50
2019-01-25T08:32:58.341Z,56.43
2019-01-25T08:35:22.914Z,58.13
2019-01-25T08:37:52.991Z,60.50
2019-01-25T08:43:13.800Z,61.87
2019-01-25T08:45:38.231Z,64.20
2019-01-25T08:48:02.651Z,57.53
2019-01-25T08:53:23.661Z,54.67
2019-01-25T08:55:48.097Z,58.40
2019-01-25T08:58:12.520Z,59.23
2019-01-25T09:00:36.907Z,57.13
2019-01-25T09:03:01.329Z,57.37
2019-01-25T09:08:23.925Z,52.97
2019-01-25T09:10:48.319Z,56.93
2019-01-25T09:13:12.748Z,56.63
2019-01-25T09:15:37.152Z,57.20
2019-01-25T09:18:01.558Z,60.90
2019-01-25T09:20:33.320Z,65.60
2019-01-25T09:22:57.726Z,58.97
2019-01-25T09:25:22.231Z,54.80
2019-01-25T09:30:43.499Z,63.07
2019-01-25T09:33:07.908Z,55.80
2019-01-25T09:35:32.310Z,61.07
2019-01-25T09:37:56.739Z,70.17
2019-01-25T09:43:18.167Z,59.33
2019-01-25T09:45:42.559Z,59.63
2019-01-25T09:48:07.067Z,61.43
2019-01-25T09:50:31.479Z,62.80
2019-01-25T09:52:55.935Z,61.10
2019-01-25T09:55:39.697Z,61.97
2019-01-25T10:03:57.311Z,58.60
2019-01-25T10:06:34.343Z,61.97
2019-01-25T10:08:58.732Z,57.37
2019-01-25T10:11:23.170Z,57.27
2019-01-25T10:13:47.569Z,59.53
2019-01-25T10:16:11.998Z,55.70
2019-01-25T10:18:36.420Z,55.07
2019-01-25T10:21:00.823Z,54.57
2019-01-25T10:23:25.244Z,54.60
2019-01-25T10:25:49.642Z,51.93
2019-01-25T10:28:14.111Z,58.50
2019-01-25T10:30:38.595Z,57.33
2019-01-25T10:33:03.049Z,56.10
2019-01-25T10:35:27.464Z,58.30
2019-01-25T10:40:48.587Z,58.27
2019-01-25T10:43:12.997Z,58.00
2019-01-25T10:45:56.742Z,59.47
2019-01-25T10:48:21.188Z,55.80
2019-01-25T10:50:45.599Z,62.10
2019-01-25T10:53:10.069Z,56.33
2019-01-25T10:55:34.631Z,58.37
2019-01-25T10:57:59.102Z,61.70
2019-01-25T11:00:23.583Z,60.30
2019-01-25T11:02:48.053Z,61.50
2019-01-25T11:05:33.276Z,64.47
2019-01-25T11:07:57.745Z,65.37
2019-01-25T11:10:22.177Z,64.77
2019-01-25T11:12:46.651Z,64.47
2019-01-25T11:18:07.798Z,69.13
2019-01-25T11:20:32.273Z,70.30
2019-01-25T11:22:56.691Z,77.47
2019-01-25T11:25:41.475Z,68.80
2019-01-25T11:28:05.991Z,76.27
2019-01-25T11:30:30.427Z,74.57
2019-01-25T11:32:54.843Z,73.00
2019-01-25T11:35:19.354Z,72.37
2019-01-25T11:37:43.761Z,78.47
2019-01-25T11:43:08.750Z,80.20
2019-01-25T11:45:54.267Z,76.30
2019-01-25T11:48:16.055Z,92.87
2019-01-25T11:50:45.768Z,82.70
2019-01-25T11:53:10.201Z,89.93
2019-01-25T11:58:31.856Z,78.60
2019-01-25T12:00:56.256Z,79.80
2019-01-25T12:03:20.681Z,80.87
2019-01-25T12:05:45.101Z,88.73
2019-01-25T12:08:09.606Z,86.50
2019-01-25T12:10:34.038Z,86.40
2019-01-25T12:12:58.460Z,87.10
2019-01-25T12:15:23.060Z,90.40
2019-01-25T12:17:47.635Z,87.70
2019-01-25T12:20:32.856Z,78.00
2019-01-25T12:22:57.345Z,89.60
2019-01-25T12:25:21.752Z,71.40
2019-01-25T12:27:46.181Z,72.67
2019-01-25T12:30:30.897Z,87.27
2019-01-25T12:32:55.406Z,80.37
2019-01-25T12:35:19.845Z,83.10
2019-01-25T12:37:44.292Z,73.40
2019-01-25T12:40:28.032Z,84.80
2019-01-25T12:42:52.460Z,74.97
2019-01-25T12:48:13.736Z,71.90
2019-01-25T12:53:34.986Z,72.17
2019-01-25T12:55:59.404Z,74.30
2019-01-25T12:58:23.878Z,70.63
2019-01-25T13:03:23.587Z,74.70
2019-01-25T13:05:48.024Z,83.30
2019-01-25T13:08:12.438Z,82.73
2019-01-25T13:10:36.887Z,71.87
2019-01-25T13:13:01.298Z,78.20
2019-01-25T13:15:25.868Z,81.00
2019-01-25T13:18:09.696Z,81.40
2019-01-25T13:23:14.675Z,83.10
2019-01-25T13:25:39.102Z,78.07
2019-01-25T13:28:03.505Z,67.70
2019-01-25T13:33:25.017Z,63.50
2019-01-25T13:35:49.450Z,67.70
2019-01-25T13:38:13.899Z,60.20
2019-01-25T13:40:38.305Z,67.23
2019-01-25T13:43:02.763Z,54.13
2019-01-25T13:45:27.253Z,58.07
2019-01-25T13:48:02.996Z,60.63
2019-01-25T13:53:24.579Z,52.53
2019-01-25T13:58:25.414Z,47.70
2019-01-25T14:00:49.835Z,49.10
2019-01-25T14:03:14.236Z,48.97
2019-01-25T14:05:38.675Z,45.73
2019-01-25T14:08:15.761Z,46.63
2019-01-25T14:13:37.051Z,42.37
2019-01-25T14:16:01.470Z,42.87
2019-01-25T14:18:25.924Z,46.43
2019-01-25T14:20:50.353Z,44.70
2019-01-25T14:23:25.949Z,45.40
2019-01-25T14:25:50.361Z,46.00
2019-01-25T14:28:14.785Z,44.03
2019-01-25T14:33:36.265Z,43.97
2019-01-25T14:36:00.781Z,40.87
2019-01-25T14:38:25.247Z,42.70
2019-01-25T14:40:49.685Z,45.47
2019-01-25T14:43:14.087Z,42.30
2019-01-25T14:45:38.497Z,43.27
2019-01-25T14:50:59.726Z,45.30
2019-01-25T14:53:24.159Z,44.23
2019-01-25T14:55:48.580Z,44.00
2019-01-25T14:58:13.046Z,48.60
2019-01-25T15:00:37.532Z,49.30
2019-01-25T15:03:01.981Z,49.40
2019-01-25T15:05:26.397Z,54.07
2019-01-25T15:07:50.807Z,51.93
2019-01-25T15:10:35.113Z,50.23
2019-01-25T15:13:18.642Z,50.40
2019-01-25T15:15:43.068Z,50.30
2019-01-25T15:18:07.615Z,53.23
2019-01-25T15:20:32.061Z,49.03
2019-01-25T15:22:56.465Z,53.23
2019-01-25T15:27:57.425Z,48.77
2019-01-25T15:33:18.413Z,52.60
2019-01-25T15:35:42.870Z,52.63
2019-01-25T15:38:07.293Z,53.50
2019-01-25T15:40:31.992Z,54.57
2019-01-25T15:42:56.476Z,50.23
2019-01-25T15:45:41.705Z,58.33
2019-01-25T15:48:06.204Z,53.43
2019-01-25T15:53:27.582Z,49.03
2019-01-25T15:55:52.002Z,57.37
2019-01-25T15:58:16.477Z,61.50
2019-01-25T16:00:40.890Z,54.23
2019-01-25T16:03:05.827Z,57.63
2019-01-25T16:05:30.265Z,56.87
2019-01-25T16:08:15.457Z,52.57
2019-01-25T16:10:39.906Z,56.93
2019-01-25T16:13:16.958Z,54.43
2019-01-25T16:15:41.387Z,56.50
2019-01-25T16:18:05.840Z,49.93
2019-01-25T16:20:30.366Z,54.07
2019-01-25T16:23:15.587Z,53.47
2019-01-25T16:25:40.029Z,47.67
2019-01-25T16:30:40.371Z,52.27
2019-01-25T16:33:05.032Z,50.20
2019-01-25T16:35:29.687Z,56.33
2019-01-25T16:37:54.177Z,56.10
2019-01-25T16:40:37.966Z,58.03
2019-01-25T16:43:02.388Z,64.37
2019-01-25T16:45:46.242Z,54.30
2019-01-25T16:48:10.900Z,46.47
2019-01-25T16:53:31.939Z,49.03
2019-01-25T16:55:56.385Z,50.70
2019-01-25T17:00:56.961Z,52.47
2019-01-25T17:03:21.365Z,52.47
2019-01-25T17:05:45.860Z,48.23
2019-01-25T17:08:10.300Z,48.87
2019-01-25T17:10:34.888Z,44.83
2019-01-25T17:12:59.350Z,43.93
2019-01-25T17:15:23.918Z,48.63
2019-01-25T17:17:48.334Z,42.47
2019-01-25T17:20:32.179Z,45.57
2019-01-25T17:22:56.876Z,41.30
2019-01-25T17:25:32.726Z,39.57
2019-01-25T17:27:57.146Z,40.93
2019-01-25T17:30:42.795Z,42.07
2019-01-25T17:33:16.339Z,40.87
2019-01-25T17:35:40.794Z,41.03
2019-01-25T17:38:05.372Z,37.53
2019-01-25T17:40:50.651Z,41.17
2019-01-25T17:43:15.154Z,41.50
2019-01-25T17:45:39.603Z,35.43
2019-01-25T17:48:14.924Z,41.03
2019-01-25T17:50:39.333Z,37.47
2019-01-25T17:53:04.206Z,37.20
2019-01-25T17:55:28.698Z,39.70
2019-01-25T17:57:53.138Z,37.97
2019-01-25T18:00:56.073Z,37.30
2019-01-25T18:03:20.566Z,34.47
2019-01-25T18:05:45.048Z,36.03
2019-01-25T18:10:45.608Z,35.60
2019-01-25T18:13:10.058Z,34.40
2019-01-25T18:15:34.652Z,38.07
2019-01-25T18:17:59.133Z,38.33
2019-01-25T18:23:20.732Z,33.10
2019-01-25T18:25:57.202Z,36.60
2019-01-25T18:28:41.830Z,36.93
2019-01-25T18:31:18.402Z,33.43
2019-01-25T18:33:42.840Z,36.43
2019-01-25T18:36:07.262Z,39.33
2019-01-25T18:38:31.987Z,33.73
2019-01-25T18:40:56.464Z,37.47
2019-01-25T18:43:20.919Z,36.47
2019-01-25T18:45:45.355Z,34.53
2019-01-25T18:48:09.877Z,32.73
2019-01-25T18:50:34.294Z,31.90
2019-01-25T18:53:11.340Z,34.97
2019-01-25T18:55:35.765Z,31.17
2019-01-25T18:58:00.212Z,34.00
2019-01-25T19:00:26.005Z,32.73
2019-01-25T19:02:56.228Z,34.10
2019-01-25T19:08:37.155Z,37.27
2019-01-25T19:11:01.570Z,34.17
2019-01-25T19:13:26.019Z,33.63
2019-01-25T19:15:50.524Z,36.53
2019-01-25T19:18:14.950Z,33.90
2019-01-25T19:20:39.373Z,40.63
2019-01-25T19:23:03.866Z,38.23
2019-01-25T19:25:28.301Z,37.87
2019-01-25T19:27:52.763Z,37.33
2019-01-25T19:30:37.898Z,38.20
2019-01-25T19:33:02.496Z,37.53
2019-01-25T19:35:38.877Z,39.50
2019-01-25T19:38:29.823Z,37.57
2019-01-25T19:40:54.283Z,41.53
2019-01-25T19:43:18.780Z,42.57
2019-01-25T19:45:43.226Z,41.33
2019-01-25T19:48:07.797Z,34.33
2019-01-25T19:50:32.273Z,39.47
2019-01-25T19:52:56.679Z,38.20
2019-01-25T19:58:17.581Z,40.33
2019-01-25T20:03:38.554Z,36.73
2019-01-25T20:08:39.589Z,38.57
2019-01-25T20:11:04.103Z,42.23
2019-01-25T20:13:28.542Z,40.93
2019-01-25T20:15:52.975Z,38.80
2019-01-25T20:18:17.422Z,36.73
2019-01-25T20:20:41.920Z,35.30
2019-01-25T20:26:03.406Z,37.73
2019-01-25T20:28:30.834Z,39.73
2019-01-25T20:30:55.268Z,38.30
2019-01-25T20:33:19.698Z,44.60
2019-01-25T20:38:40.907Z,40.70
2019-01-25T20:41:05.315Z,41.40
2019-01-25T20:43:29.766Z,41.73
2019-01-25T20:45:54.265Z,43.83
2019-01-25T20:48:18.699Z,41.60
2019-01-25T20:50:43.174Z,43.30
2019-01-25T20:59:01.354Z,39.57
2019-01-25T21:01:25.797Z,39.87
2019-01-25T21:03:50.209Z,46.03
2019-01-25T21:06:16.756Z,51.77
2019-01-25T21:08:41.212Z,45.10
2019-01-25T21:11:05.813Z,46.43
2019-01-25T21:13:30.302Z,45.83
2019-01-25T21:15:54.756Z,42.57
2019-01-25T21:18:19.196Z,40.73
2019-01-25T21:23:40.945Z,48.87
2019-01-25T21:26:05.431Z,45.07
2019-01-25T21:28:29.860Z,42.03
2019-01-25T21:30:54.282Z,46.00
2019-01-25T21:33:18.702Z,47.10
2019-01-25T21:35:43.115Z,43.73
2019-01-25T21:38:07.781Z,44.20
2019-01-25T21:43:29.073Z,40.50
2019-01-25T21:45:53.520Z,49.20
2019-01-25T21:48:17.944Z,49.80
2019-01-25T21:51:03.168Z,46.80
2019-01-25T21:53:27.648Z,51.03
2019-01-25T21:55:52.100Z,45.17
2019-01-25T21:58:16.570Z,45.87
2019-01-25T22:00:41.051Z,48.27
2019-01-25T22:06:02.067Z,48.97
2019-01-25T22:08:26.572Z,44.83
2019-01-25T22:10:50.984Z,57.63
2019-01-25T22:13:15.463Z,47.37
2019-01-25T22:15:39.907Z,48.60
2019-01-25T22:18:15.334Z,50.23
2019-01-25T22:20:39.942Z,48.87
2019-01-25T22:23:16.993Z,52.57
2019-01-25T22:25:41.562Z,55.57
2019-01-25T22:28:05.983Z,49.20
2019-01-25T22:30:30.418Z,55.10
2019-01-25T22:35:51.599Z,52.17
2019-01-25T22:38:16.025Z,56.97
2019-01-25T22:40:40.445Z,59.80
2019-01-25T22:43:05.522Z,57.60
2019-01-25T22:45:36.545Z,59.77
2019-01-25T22:48:01.160Z,58.27
2019-01-25T22:53:23.017Z,60.87
2019-01-25T22:55:47.420Z,55.57
2019-01-25T22:58:11.966Z,58.20
2019-01-25T23:06:47.585Z,61.03
2019-01-25T23:12:09.268Z,60.53
2019-01-25T23:14:33.732Z,70.10
2019-01-25T23:16:58.152Z,67.37
2019-01-25T23:19:22.614Z,66.23
2019-01-25T23:21:47.019Z,57.87
2019-01-25T23:24:11.431Z,62.00
2019-01-25T23:29:23.108Z,68.63
2019-01-25T23:31:47.601Z,60.33
2019-01-25T23:34:11.989Z,58.33
2019-01-25T23:36:36.385Z,62.83
2019-01-25T23:39:00.810Z,58.07
2019-01-25T23:41:25.219Z,69.23
2019-01-25T23:43:49.639Z,69.83
2019-01-25T23:46:14.156Z,64.70
2019-01-25T23:48:38.544Z,65.90
2019-01-25T23:51:02.948Z,62.03
2019-01-25T23:53:27.347Z,63.90
2019-01-25T23:55:51.753Z,62.00
2019-01-25T23:58:16.161Z,62.00
